createdAt,value
2022-11-29T00:01:48.358Z,5.80
2022-11-29T00:07:50.163Z,5.80
2022-11-29T00:13:52.065Z,5.90
2022-11-29T00:19:53.710Z,5.80
2022-11-29T00:25:55.411Z,5.80
2022-11-29T00:31:57.188Z,5.90
2022-11-29T00:37:59.038Z,5.80
2022-11-29T00:44:00.849Z,5.80
2022-11-29T00:50:02.504Z,5.80
2022-11-29T00:56:05.032Z,5.80
2022-11-29T01:02:06.868Z,5.80
2022-11-29T01:08:09.132Z,5.80
2022-11-29T01:14:11.327Z,5.80
2022-11-29T01:20:13.671Z,5.80
2022-11-29T01:26:17.230Z,5.80
2022-11-29T01:32:19.057Z,5.80
2022-11-29T01:38:21.349Z,5.80
2022-11-29T01:44:23.089Z,5.90
2022-11-29T01:50:24.925Z,5.80
2022-11-29T01:56:27.513Z,5.80
2022-11-29T02:02:35.265Z,5.80
2022-11-29T02:08:39.514Z,5.90
2022-11-29T02:14:44.538Z,5.80
2022-11-29T02:20:52.917Z,5.90
2022-11-29T02:27:20.590Z,5.90
2022-11-29T02:33:30.140Z,5.90
2022-11-29T02:39:40.976Z,5.90
2022-11-29T02:45:58.290Z,5.90
2022-11-29T02:52:01.630Z,5.90
2022-11-29T02:58:09.757Z,5.90
2022-11-29T03:04:28.798Z,5.90
2022-11-29T03:10:38.913Z,5.90
2022-11-29T03:16:55.972Z,5.90
2022-11-29T03:23:13.044Z,5.90
2022-11-29T03:29:23.985Z,5.90
2022-11-29T03:35:31.004Z,5.90
2022-11-29T03:41:51.549Z,5.90
2022-11-29T03:47:56.353Z,6.00
2022-11-29T03:54:02.080Z,6.00
2022-11-29T04:00:09.949Z,6.00
2022-11-29T04:06:21.707Z,5.90
2022-11-29T04:12:34.575Z,6.00
2022-11-29T04:18:36.214Z,5.90
2022-11-29T04:25:07.891Z,6.00
2022-11-29T04:31:09.719Z,5.90
2022-11-29T04:37:26.663Z,5.90
2022-11-29T04:43:35.772Z,6.00
2022-11-29T04:49:56.445Z,6.00
2022-11-29T04:56:05.293Z,6.00
2022-11-29T05:02:25.468Z,6.00
2022-11-29T05:08:43.340Z,6.00
2022-11-29T05:15:00.040Z,5.90
2022-11-29T05:21:20.673Z,6.10
2022-11-29T05:27:42.634Z,6.00
2022-11-29T05:33:47.130Z,6.00
2022-11-29T05:40:07.589Z,6.00
2022-11-29T05:46:14.385Z,6.00
2022-11-29T05:52:25.414Z,6.00
2022-11-29T05:58:36.401Z,6.00
2022-11-29T06:04:57.403Z,6.00
2022-11-29T06:11:12.193Z,6.00
2022-11-29T06:17:38.635Z,6.00
2022-11-29T06:23:50.601Z,6.00
2022-11-29T06:30:00.059Z,6.00
2022-11-29T06:36:14.007Z,6.00
2022-11-29T06:42:15.701Z,6.00
2022-11-29T06:48:22.356Z,6.10
2022-11-29T06:54:24.079Z,6.00
2022-11-29T07:00:27.197Z,6.10
2022-11-29T07:06:29.240Z,6.10
2022-11-29T07:12:31.105Z,6.00
2022-11-29T07:19:02.093Z,6.10
2022-11-29T07:31:17.057Z,6.10
2022-11-29T07:37:18.730Z,6.10
2022-11-29T07:43:23.606Z,6.00
2022-11-29T07:49:25.307Z,6.00
2022-11-29T07:55:27.089Z,6.10
2022-11-29T08:01:28.736Z,6.10
2022-11-29T08:07:30.559Z,6.10
2022-11-29T08:13:32.345Z,6.10
2022-11-29T08:19:34.087Z,6.10
2022-11-29T08:25:35.732Z,6.20
2022-11-29T08:31:37.597Z,6.20
2022-11-29T08:37:39.348Z,6.30
2022-11-29T08:43:41.449Z,6.30
2022-11-29T08:50:01.648Z,6.30
2022-11-29T08:56:23.637Z,6.30
2022-11-29T09:02:25.629Z,6.40
2022-11-29T09:08:29.575Z,6.40
2022-11-29T09:14:31.192Z,6.50
2022-11-29T09:20:33.703Z,6.50
2022-11-29T09:26:36.985Z,6.60
2022-11-29T09:32:38.750Z,6.70
2022-11-29T09:38:40.852Z,6.70
2022-11-29T09:44:51.461Z,6.80
2022-11-29T09:51:11.890Z,6.70
2022-11-29T09:57:14.127Z,6.80
2022-11-29T10:03:23.425Z,6.90
2022-11-29T10:09:33.703Z,6.90
2022-11-29T10:15:39.517Z,7.00
2022-11-29T10:21:43.305Z,7.00
2022-11-29T10:27:44.999Z,7.00
2022-11-29T10:33:47.061Z,7.10
2022-11-29T10:39:58.599Z,7.10
2022-11-29T10:46:02.380Z,7.20
2022-11-29T10:52:04.036Z,7.10
2022-11-29T10:58:10.104Z,7.20
2022-11-29T11:04:15.892Z,7.20
2022-11-29T11:10:21.797Z,7.20
2022-11-29T11:16:24.587Z,7.30
2022-11-29T11:22:26.859Z,7.30
2022-11-29T11:28:30.499Z,7.40
2022-11-29T11:34:38.132Z,7.40
2022-11-29T11:40:39.820Z,7.50
2022-11-29T11:46:49.284Z,7.50
2022-11-29T11:52:55.473Z,7.60
2022-11-29T11:58:57.804Z,7.60
2022-11-29T12:05:00.945Z,7.60
2022-11-29T12:11:07.377Z,7.70
2022-11-29T12:17:19.915Z,7.60
2022-11-29T12:23:26.668Z,7.60
2022-11-29T12:29:30.099Z,7.60
2022-11-29T12:35:39.615Z,7.60
2022-11-29T12:42:00.052Z,7.60
2022-11-29T12:48:05.907Z,7.60
2022-11-29T12:54:33.932Z,7.60
2022-11-29T13:00:41.242Z,7.80
2022-11-29T13:06:45.857Z,7.90
2022-11-29T13:13:08.178Z,7.90
2022-11-29T13:19:23.892Z,8.00
2022-11-29T13:25:30.319Z,7.90
2022-11-29T13:31:32.645Z,7.90
2022-11-29T13:37:42.708Z,7.80
2022-11-29T13:44:04.643Z,7.80
2022-11-29T13:50:07.281Z,7.80
2022-11-29T13:56:24.892Z,7.70
2022-11-29T14:02:28.440Z,7.70
2022-11-29T14:09:02.480Z,7.70
2022-11-29T14:15:03.081Z,7.80
2022-11-29T14:21:04.800Z,7.70
2022-11-29T14:27:06.421Z,7.70
2022-11-29T14:33:20.016Z,7.70
2022-11-29T14:39:27.782Z,7.70
2022-11-29T14:45:31.341Z,7.80
2022-11-29T14:51:34.060Z,7.60
2022-11-29T14:57:47.931Z,7.70
2022-11-29T15:03:49.949Z,7.70
2022-11-29T15:09:53.116Z,7.70
2022-11-29T15:15:54.845Z,7.70
2022-11-29T15:22:15.401Z,7.60
2022-11-29T15:28:24.837Z,7.70
2022-11-29T15:34:34.841Z,7.60
2022-11-29T15:40:41.474Z,7.60
2022-11-29T15:46:43.097Z,7.60
2022-11-29T15:52:44.783Z,7.70
2022-11-29T15:58:47.831Z,7.60
2022-11-29T16:04:50.929Z,7.60
2022-11-29T16:10:53.409Z,7.60
2022-11-29T16:16:56.574Z,7.50
2022-11-29T16:23:16.599Z,7.50
2022-11-29T16:29:24.653Z,7.50
2022-11-29T16:35:27.602Z,7.50
2022-11-29T16:41:29.369Z,7.50
2022-11-29T16:48:09.188Z,7.60
2022-11-29T16:54:34.327Z,7.50
2022-11-29T17:00:36.309Z,7.60
2022-11-29T17:06:38.419Z,7.60
2022-11-29T17:12:44.749Z,7.50
2022-11-29T17:18:49.755Z,7.50
2022-11-29T17:24:51.863Z,7.60
2022-11-29T17:30:54.127Z,7.60
2022-11-29T17:36:55.894Z,7.50
2022-11-29T17:42:57.841Z,7.60
2022-11-29T17:49:00.400Z,7.50
2022-11-29T17:55:02.257Z,7.50
2022-11-29T18:01:05.277Z,7.60
2022-11-29T18:07:07.415Z,7.50
2022-11-29T18:13:09.182Z,7.50
2022-11-29T18:19:11.724Z,7.50
2022-11-29T18:25:37.764Z,7.50
2022-11-29T18:31:37.204Z,7.50
2022-11-29T18:38:12.695Z,7.40
2022-11-29T18:44:02.491Z,7.40
2022-11-29T18:50:04.409Z,7.40
2022-11-29T18:56:11.619Z,7.40
2022-11-29T19:02:15.586Z,7.40
2022-11-29T19:08:17.340Z,7.40
2022-11-29T19:14:19.188Z,7.40
2022-11-29T19:20:21.032Z,7.30
2022-11-29T19:26:23.477Z,7.40
2022-11-29T19:32:25.334Z,7.40
2022-11-29T19:38:27.004Z,7.40
2022-11-29T19:44:30.147Z,7.40
2022-11-29T19:50:33.126Z,7.40
2022-11-29T19:56:34.927Z,7.30
2022-11-29T20:02:36.666Z,7.40
2022-11-29T20:08:38.424Z,7.40
2022-11-29T20:14:40.100Z,7.50
2022-11-29T20:20:41.919Z,7.50
2022-11-29T20:26:44.883Z,7.40
2022-11-29T20:32:46.790Z,7.40
2022-11-29T20:38:51.975Z,7.40
2022-11-29T20:44:54.052Z,7.40
2022-11-29T20:51:00.177Z,7.40
2022-11-29T20:57:01.982Z,7.40
2022-11-29T21:03:03.765Z,7.40
2022-11-29T21:09:05.795Z,7.50
2022-11-29T21:15:08.961Z,7.50
2022-11-29T21:21:19.738Z,7.40
2022-11-29T21:27:27.096Z,7.40
2022-11-29T21:33:29.050Z,7.30
2022-11-29T21:39:34.309Z,7.40
2022-11-29T21:45:36.421Z,7.40
2022-11-29T21:51:38.128Z,7.30
2022-11-29T21:57:40.005Z,7.40
2022-11-29T22:03:42.167Z,7.40
2022-11-29T22:09:43.925Z,7.40
2022-11-29T22:15:45.821Z,7.30
2022-11-29T22:21:49.185Z,7.40
2022-11-29T22:27:50.931Z,7.30
2022-11-29T22:33:53.841Z,7.40
2022-11-29T22:39:55.505Z,7.30
2022-11-29T22:46:07.302Z,7.30
2022-11-29T22:52:09.121Z,7.30
2022-11-29T22:58:10.828Z,7.30
2022-11-29T23:04:13.157Z,7.30
2022-11-29T23:10:15.145Z,7.20
2022-11-29T23:16:18.816Z,7.20
2022-11-29T23:22:20.798Z,7.20
2022-11-29T23:28:23.057Z,7.20
2022-11-29T23:34:24.884Z,7.20
2022-11-29T23:40:26.599Z,7.10
2022-11-29T23:46:28.454Z,7.10
2022-11-29T23:52:30.099Z,7.10
2022-11-29T23:58:31.830Z,7.10
